createdAt,value
2023-04-30T00:01:58.442Z,101706.50
2023-04-30T00:04:28.127Z,101684.63
2023-04-30T00:06:56.065Z,101688.00
2023-04-30T00:09:24.007Z,101711.28
2023-04-30T00:11:51.907Z,101702.94
2023-04-30T00:14:20.075Z,101701.00
2023-04-30T00:16:48.142Z,101651.38
2023-04-30T00:19:16.154Z,101712.13
2023-04-30T00:21:46.008Z,101711.28
2023-04-30T00:24:14.208Z,101718.59
2023-04-30T00:26:43.853Z,101662.72
2023-04-30T00:29:12.408Z,101720.28
2023-04-30T00:31:40.426Z,101726.75
2023-04-30T00:34:08.380Z,101734.91
2023-04-30T00:36:36.322Z,101724.22
2023-04-30T00:39:05.747Z,101730.50
2023-04-30T00:41:33.856Z,101727.78
2023-04-30T00:44:02.930Z,101727.78
2023-04-30T00:46:31.220Z,101734.28
2023-04-30T00:49:00.204Z,101735.09
2023-04-30T00:51:28.109Z,101726.13
2023-04-30T00:53:56.315Z,101728.84
2023-04-30T00:56:25.577Z,101734.28
2023-04-30T00:58:57.036Z,101714.06
2023-04-30T01:01:25.326Z,101738.88
2023-04-30T01:03:53.619Z,101724.34
2023-04-30T01:06:21.599Z,101699.97
2023-04-30T01:08:49.639Z,101739.91
2023-04-30T01:11:21.864Z,101729.22
2023-04-30T01:14:03.453Z,101687.16
2023-04-30T01:16:32.292Z,101697.06
2023-04-30T01:19:05.214Z,101729.03
2023-04-30T01:21:33.722Z,101730.72
2023-04-30T01:24:17.596Z,101718.09
2023-04-30T01:27:01.586Z,101727.34
2023-04-30T01:29:30.911Z,101707.97
2023-04-30T01:31:58.813Z,101722.94
2023-04-30T01:34:27.032Z,101725.66
2023-04-30T01:37:04.022Z,101616.13
2023-04-30T01:39:38.985Z,101724.63
2023-04-30T01:42:09.000Z,101656.28
2023-04-30T01:44:48.657Z,101719.38
2023-04-30T01:47:22.156Z,101701.06
2023-04-30T01:50:01.839Z,101722.31
2023-04-30T01:52:33.194Z,101691.38
2023-04-30T01:55:02.485Z,101728.59
2023-04-30T01:57:33.434Z,101723.91
2023-04-30T02:00:02.739Z,101728.59
2023-04-30T02:02:30.707Z,101731.31
2023-04-30T02:04:58.676Z,101729.78
2023-04-30T02:07:33.329Z,101733.16
2023-04-30T02:10:01.253Z,101737.94
2023-04-30T02:12:30.644Z,101738.59
2023-04-30T02:14:58.578Z,101732.31
2023-04-30T02:17:27.869Z,101737.75
2023-04-30T02:19:55.900Z,101727.91
2023-04-30T02:22:24.007Z,101728.75
2023-04-30T02:24:53.688Z,101728.75
2023-04-30T02:27:21.579Z,101724.34
2023-04-30T02:29:49.641Z,101700.59
2023-04-30T02:32:18.049Z,101715.19
2023-04-30T02:34:47.405Z,101718.94
2023-04-30T02:37:15.307Z,101725.19
2023-04-30T02:39:43.835Z,101721.66
2023-04-30T02:42:12.308Z,101724.34
2023-04-30T02:44:41.185Z,101727.06
2023-04-30T02:47:09.108Z,101730.63
2023-04-30T02:49:36.991Z,101735.22
2023-04-30T02:52:07.206Z,101730.63
2023-04-30T02:54:35.521Z,101688.34
2023-04-30T02:57:03.427Z,101709.41
2023-04-30T02:59:31.358Z,101734.38
2023-04-30T03:01:59.315Z,101734.38
2023-04-30T03:04:27.321Z,101736.25
2023-04-30T03:06:55.264Z,101737.94
2023-04-30T03:09:24.752Z,101698.22
2023-04-30T03:11:52.678Z,101733.53
2023-04-30T03:14:20.909Z,101732.69
2023-04-30T03:16:48.838Z,101739.81
2023-04-30T03:19:17.577Z,101738.97
2023-04-30T03:21:45.532Z,101742.53
2023-04-30T03:24:13.462Z,101744.41
2023-04-30T03:26:42.784Z,101742.34
2023-04-30T03:29:10.776Z,101741.50
2023-04-30T03:31:38.772Z,101734.19
2023-04-30T03:34:06.774Z,101732.50
2023-04-30T03:36:34.866Z,101728.09
2023-04-30T03:39:02.747Z,101732.50
2023-04-30T03:41:30.676Z,101733.34
2023-04-30T03:44:00.431Z,101735.88
2023-04-30T03:46:28.472Z,101736.91
2023-04-30T03:48:56.423Z,101726.03
2023-04-30T03:51:24.372Z,101733.16
2023-04-30T03:53:52.761Z,101725.88
2023-04-30T03:56:21.260Z,101724.19
2023-04-30T03:58:49.149Z,101736.72
2023-04-30T04:01:18.464Z,101733.16
2023-04-30T04:03:46.845Z,101742.97
2023-04-30T04:06:14.867Z,101740.25
2023-04-30T04:08:43.369Z,101740.25
2023-04-30T04:11:11.479Z,101740.25
2023-04-30T04:13:39.931Z,101740.47
2023-04-30T04:16:09.622Z,101735.88
2023-04-30T04:18:38.981Z,101738.59
2023-04-30T04:21:07.760Z,101741.31
2023-04-30T04:23:36.249Z,101747.78
2023-04-30T04:26:04.201Z,101745.91
2023-04-30T04:28:32.784Z,101748.63
2023-04-30T04:31:00.744Z,101750.31
2023-04-30T04:33:28.878Z,101694.31
2023-04-30T04:35:58.303Z,101766.63
2023-04-30T04:38:26.813Z,101757.63
2023-04-30T04:40:54.786Z,101760.34
2023-04-30T04:43:23.165Z,101763.06
2023-04-30T04:45:52.306Z,101753.03
2023-04-30T04:48:20.271Z,101754.91
2023-04-30T04:50:48.201Z,101754.25
2023-04-30T04:53:17.768Z,101755.75
2023-04-30T04:55:45.670Z,101756.97
2023-04-30T04:58:13.600Z,101762.84
2023-04-30T05:00:41.517Z,101750.25
2023-04-30T05:03:10.218Z,101761.81
2023-04-30T05:05:38.577Z,101760.78
2023-04-30T05:08:06.699Z,101759.09
2023-04-30T05:10:36.341Z,101708.41
2023-04-30T05:13:04.797Z,101763.50
2023-04-30T05:15:32.787Z,101764.34
2023-04-30T05:18:00.707Z,101759.28
2023-04-30T05:20:28.681Z,101735.09
2023-04-30T05:22:57.034Z,101771.66
2023-04-30T05:25:25.120Z,101707.22
2023-04-30T05:27:54.406Z,101769.97
2023-04-30T05:30:22.322Z,101789.81
2023-04-30T05:32:52.177Z,101786.25
2023-04-30T05:35:20.349Z,101790.66
2023-04-30T05:37:48.419Z,101799.84
2023-04-30T05:40:16.357Z,101799.84
2023-04-30T05:42:44.712Z,101804.44
2023-04-30T05:45:15.944Z,101807.16
2023-04-30T05:47:43.946Z,101804.44
2023-04-30T05:50:12.317Z,101812.59
2023-04-30T05:52:40.594Z,101806.31
2023-04-30T05:55:09.788Z,101805.47
2023-04-30T05:57:37.819Z,101750.75
2023-04-30T06:00:09.780Z,101807.16
2023-04-30T06:02:41.591Z,101789.28
2023-04-30T06:05:10.080Z,101807.38
2023-04-30T06:07:37.986Z,101801.09
2023-04-30T06:10:07.084Z,101788.28
2023-04-30T06:12:35.625Z,101794.59
2023-04-30T06:15:03.584Z,101797.31
2023-04-30T06:17:31.562Z,101793.78
2023-04-30T06:20:04.414Z,101760.09
2023-04-30T06:22:32.993Z,101789.16
2023-04-30T06:25:01.032Z,101786.44
2023-04-30T06:27:29.050Z,101793.56
2023-04-30T06:29:57.184Z,101790.00
2023-04-30T06:32:25.112Z,101793.78
2023-04-30T06:34:53.017Z,101722.41
2023-04-30T06:37:22.365Z,101794.59
2023-04-30T06:39:50.404Z,101795.66
2023-04-30T06:42:18.325Z,101790.84
2023-04-30T06:44:57.091Z,101781.81
2023-04-30T06:47:25.010Z,101791.69
2023-04-30T06:49:53.233Z,101791.06
2023-04-30T06:52:22.787Z,101789.16
2023-04-30T06:54:52.336Z,101764.13
2023-04-30T06:57:20.213Z,101715.94
2023-04-30T06:59:48.189Z,101790.84
2023-04-30T07:02:16.166Z,101793.56
2023-04-30T07:04:45.445Z,101799.00
2023-04-30T07:07:13.440Z,101790.66
2023-04-30T07:09:42.739Z,101781.84
2023-04-30T07:12:12.029Z,101791.06
2023-04-30T07:14:40.520Z,101757.66
2023-04-30T07:17:08.506Z,101706.94
2023-04-30T07:19:36.885Z,101735.38
2023-04-30T07:22:09.226Z,101323.69
2023-04-30T07:24:37.525Z,101774.38
2023-04-30T07:27:07.469Z,101535.81
2023-04-30T07:29:36.285Z,101778.97
2023-04-30T07:32:04.252Z,101786.09
2023-04-30T07:34:32.515Z,101778.13
2023-04-30T07:37:01.192Z,101779.81
2023-04-30T07:39:30.978Z,101773.53
2023-04-30T07:41:58.889Z,101777.09
2023-04-30T07:44:28.581Z,101783.38
2023-04-30T07:46:56.602Z,101770.81
2023-04-30T07:49:24.520Z,101780.66
2023-04-30T07:51:52.426Z,101780.66
2023-04-30T07:54:20.630Z,101780.66
2023-04-30T07:56:49.006Z,101770.81
2023-04-30T07:59:17.726Z,101728.25
2023-04-30T08:01:47.218Z,101777.94
2023-04-30T08:04:16.334Z,101776.91
2023-04-30T08:06:44.386Z,101780.66
2023-04-30T08:09:12.486Z,101786.09
2023-04-30T08:11:40.423Z,101777.75
2023-04-30T08:14:08.804Z,101748.28
2023-04-30T08:16:37.025Z,101778.56
2023-04-30T08:19:06.569Z,101763.41
2023-04-30T08:21:34.505Z,101784.84
2023-04-30T08:24:03.226Z,101777.75
2023-04-30T08:26:31.208Z,101774.63
2023-04-30T08:28:59.090Z,101766.81
2023-04-30T08:31:26.983Z,101780.06
2023-04-30T08:33:54.912Z,101780.06
2023-04-30T08:36:24.233Z,101773.78
2023-04-30T08:38:52.181Z,101774.63
2023-04-30T08:41:20.283Z,101777.34
2023-04-30T08:43:48.779Z,101769.19
2023-04-30T08:46:17.145Z,101773.59
2023-04-30T08:48:45.286Z,101770.03
2023-04-30T08:51:13.213Z,101753.41
2023-04-30T08:53:43.374Z,101774.63
2023-04-30T08:56:11.828Z,101766.28
2023-04-30T08:58:39.755Z,101659.59
2023-04-30T09:01:08.091Z,101758.16
2023-04-30T09:03:36.476Z,101727.84
2023-04-30T09:06:04.529Z,101650.63
2023-04-30T09:08:54.537Z,101760.03
2023-04-30T09:11:26.510Z,101639.13
2023-04-30T09:13:56.013Z,101755.44
2023-04-30T09:16:24.397Z,101745.41
2023-04-30T09:18:52.688Z,101750.84
2023-04-30T09:21:32.768Z,101743.53
2023-04-30T09:24:02.957Z,101753.34
2023-04-30T09:26:33.147Z,101748.97
2023-04-30T09:29:07.521Z,101754.19
2023-04-30T09:31:35.963Z,101744.16
2023-04-30T09:34:04.361Z,101737.69
2023-04-30T09:36:32.672Z,101721.38
2023-04-30T09:39:14.265Z,101725.56
2023-04-30T09:41:43.374Z,101720.97
2023-04-30T09:44:28.026Z,101719.13
2023-04-30T09:46:56.051Z,101719.78
2023-04-30T09:49:23.973Z,101718.75
2023-04-30T09:51:55.626Z,101713.94
2023-04-30T09:54:26.892Z,101717.69
2023-04-30T09:56:55.166Z,101718.75
2023-04-30T09:59:23.373Z,101716.03
2023-04-30T10:01:51.465Z,101707.03
2023-04-30T10:04:20.254Z,101600.03
2023-04-30T10:06:48.353Z,101694.88
2023-04-30T10:09:16.933Z,101702.63
2023-04-30T10:11:46.700Z,101707.03
2023-04-30T10:14:15.103Z,101701.59
2023-04-30T10:16:45.499Z,101682.06
2023-04-30T10:19:15.798Z,101590.03
2023-04-30T10:21:44.093Z,101611.00
2023-04-30T10:24:14.169Z,101682.56
2023-04-30T10:26:42.526Z,101679.84
2023-04-30T10:29:11.812Z,101683.59
2023-04-30T10:31:39.750Z,101677.97
2023-04-30T10:34:14.133Z,101677.13
2023-04-30T10:36:44.680Z,101679.84
2023-04-30T10:39:12.826Z,101677.13
2023-04-30T10:41:40.813Z,101674.41
2023-04-30T10:44:09.323Z,101678.81
2023-04-30T10:46:38.661Z,101676.09
2023-04-30T10:49:06.642Z,101673.56
2023-04-30T10:51:48.463Z,101665.41
2023-04-30T10:54:17.898Z,101666.25
2023-04-30T10:56:46.388Z,101650.97
2023-04-30T10:59:14.308Z,101616.53
2023-04-30T11:02:00.003Z,101650.97
2023-04-30T11:04:29.360Z,101646.56
2023-04-30T11:07:03.669Z,101650.97
2023-04-30T11:09:40.279Z,101595.31
2023-04-30T11:12:12.856Z,101572.69
2023-04-30T11:14:44.702Z,101619.56
2023-04-30T11:17:24.504Z,101627.38
2023-04-30T11:19:54.612Z,101625.50
2023-04-30T11:22:25.266Z,101601.13
2023-04-30T11:24:54.666Z,101630.94
2023-04-30T11:27:23.962Z,101615.84
2023-04-30T11:29:52.605Z,101628.22
2023-04-30T11:32:22.980Z,101624.66
2023-04-30T11:34:51.172Z,101623.63
2023-04-30T11:37:20.948Z,101604.09
2023-04-30T11:39:48.940Z,101611.91
2023-04-30T11:42:19.826Z,101614.81
2023-04-30T11:44:48.213Z,101613.59
2023-04-30T11:47:16.242Z,101585.41
2023-04-30T11:49:45.560Z,101603.75
2023-04-30T11:52:14.566Z,101604.59
2023-04-30T11:54:42.803Z,101604.59
2023-04-30T11:57:11.480Z,101604.59
2023-04-30T11:59:43.748Z,101600.00
2023-04-30T12:02:13.556Z,101603.34
2023-04-30T12:04:41.886Z,101588.72
2023-04-30T12:07:11.362Z,101588.72
2023-04-30T12:09:53.473Z,101585.81
2023-04-30T12:12:29.016Z,101583.94
2023-04-30T12:14:56.936Z,101582.88
2023-04-30T12:17:34.744Z,101577.44
2023-04-30T12:20:02.827Z,101573.50
2023-04-30T12:22:32.448Z,101573.50
2023-04-30T12:25:00.825Z,101573.50
2023-04-30T12:27:30.239Z,101578.09
2023-04-30T12:29:58.168Z,101566.19
2023-04-30T12:32:26.661Z,101571.63
2023-04-30T12:34:59.072Z,101564.31
2023-04-30T12:37:28.058Z,101558.88
2023-04-30T12:39:58.258Z,101564.09
2023-04-30T12:42:26.413Z,101561.38
2023-04-30T12:44:54.342Z,101560.56
2023-04-30T12:47:22.349Z,101560.34
2023-04-30T12:49:50.464Z,101558.22
2023-04-30T12:52:18.651Z,101557.63
2023-04-30T12:54:47.253Z,101497.84
2023-04-30T12:57:16.526Z,101550.50
2023-04-30T12:59:58.227Z,101550.13
2023-04-30T13:02:27.165Z,101495.38
2023-04-30T13:04:55.475Z,101545.06
2023-04-30T13:07:23.533Z,101545.72
2023-04-30T13:09:51.437Z,101538.81
2023-04-30T13:12:20.990Z,101542.34
2023-04-30T13:14:48.946Z,101539.63
2023-04-30T13:17:16.862Z,101536.91
2023-04-30T13:19:44.773Z,101535.25
2023-04-30T13:22:12.797Z,101533.38
2023-04-30T13:24:41.307Z,101529.81
2023-04-30T13:27:09.201Z,101375.38
2023-04-30T13:29:38.575Z,101522.88
2023-04-30T13:32:08.429Z,101506.78
2023-04-30T13:34:36.730Z,101513.09
2023-04-30T13:37:10.771Z,101456.44
2023-04-30T13:39:38.699Z,101436.81
2023-04-30T13:42:06.734Z,101483.53
2023-04-30T13:44:42.677Z,101493.00
2023-04-30T13:47:11.589Z,101498.66
2023-04-30T13:49:39.834Z,101501.81
2023-04-30T13:52:07.764Z,101494.06
2023-04-30T13:54:37.504Z,101493.66
2023-04-30T13:57:05.833Z,101492.63
2023-04-30T13:59:33.853Z,101485.72
2023-04-30T14:02:03.261Z,101455.97
2023-04-30T14:04:37.215Z,101478.41
2023-04-30T14:07:05.244Z,101426.41
2023-04-30T14:09:33.184Z,101479.44
2023-04-30T14:12:01.087Z,101476.53
2023-04-30T14:14:29.056Z,101443.78
2023-04-30T14:16:57.318Z,101468.56
2023-04-30T14:19:26.870Z,101461.44
2023-04-30T14:21:55.540Z,101470.25
2023-04-30T14:24:23.762Z,101409.88
2023-04-30T14:26:51.982Z,101455.81
2023-04-30T14:29:21.598Z,101463.97
2023-04-30T14:31:49.905Z,101458.72
2023-04-30T14:34:17.953Z,101457.03
2023-04-30T14:36:47.556Z,101448.06
2023-04-30T14:39:15.501Z,101441.78
2023-04-30T14:41:43.447Z,101449.13
2023-04-30T14:44:11.367Z,101426.88
2023-04-30T14:46:39.595Z,101417.09
2023-04-30T14:49:07.739Z,101429.63
2023-04-30T14:51:35.970Z,101438.44
2023-04-30T14:54:05.314Z,101399.84
2023-04-30T14:56:33.533Z,101427.56
2023-04-30T14:59:01.538Z,101431.31
2023-04-30T15:01:30.460Z,101432.34
2023-04-30T15:03:58.777Z,101375.78
2023-04-30T15:06:26.961Z,101340.63
2023-04-30T15:08:54.959Z,101416.03
2023-04-30T15:11:25.231Z,101424.19
2023-04-30T15:13:54.551Z,101340.63
2023-04-30T15:16:22.650Z,101406.59
2023-04-30T15:18:50.994Z,101416.03
2023-04-30T15:21:18.896Z,101413.56
2023-04-30T15:23:48.078Z,101408.94
2023-04-30T15:26:16.016Z,101409.78
2023-04-30T15:28:45.596Z,101408.94
2023-04-30T15:31:13.515Z,101408.13
2023-04-30T15:33:42.251Z,101327.69
2023-04-30T15:36:11.123Z,101400.16
2023-04-30T15:38:39.294Z,101398.28
2023-04-30T15:41:07.269Z,101375.03
2023-04-30T15:43:35.199Z,101394.31
2023-04-30T15:46:04.658Z,101395.16
2023-04-30T15:48:32.973Z,101387.19
2023-04-30T15:51:01.214Z,101379.22
2023-04-30T15:53:29.267Z,101396.19
2023-04-30T15:55:57.806Z,101394.53
2023-04-30T15:58:25.994Z,101384.47
2023-04-30T16:00:54.032Z,101384.47
2023-04-30T16:03:23.655Z,101381.75
2023-04-30T16:05:51.649Z,101388.03
2023-04-30T16:08:19.902Z,101387.19
2023-04-30T16:10:48.174Z,101382.59
2023-04-30T16:13:16.051Z,101382.59
2023-04-30T16:15:44.026Z,101384.28
2023-04-30T16:18:12.639Z,101375.28
2023-04-30T16:20:42.632Z,101375.28
2023-04-30T16:23:10.557Z,101373.59
2023-04-30T16:25:38.581Z,101363.16
2023-04-30T16:28:06.748Z,101367.13
2023-04-30T16:30:34.655Z,101372.56
2023-04-30T16:33:03.073Z,101364.41
2023-04-30T16:35:31.255Z,101363.56
2023-04-30T16:38:02.508Z,101367.97
2023-04-30T16:40:31.000Z,101367.13
2023-04-30T16:43:00.656Z,101360.84
2023-04-30T16:45:30.301Z,101356.47
2023-04-30T16:47:58.624Z,101356.25
2023-04-30T16:50:27.014Z,101349.13
2023-04-30T16:52:54.963Z,101348.31
2023-04-30T16:55:25.054Z,101338.28
2023-04-30T16:57:53.881Z,101329.06
2023-04-30T17:00:22.018Z,101351.84
2023-04-30T17:02:50.293Z,101344.31
2023-04-30T17:05:18.314Z,101358.34
2023-04-30T17:07:46.539Z,101360.00
2023-04-30T17:10:14.890Z,101351.03
2023-04-30T17:12:44.457Z,101347.50
2023-04-30T17:15:12.627Z,101344.78
2023-04-30T17:17:40.906Z,101324.22
2023-04-30T17:20:09.573Z,101335.56
2023-04-30T17:22:38.257Z,101272.09
2023-04-30T17:25:06.864Z,101338.06
2023-04-30T17:27:36.225Z,101333.28
2023-04-30T17:30:08.762Z,101330.56
2023-04-30T17:32:36.763Z,101320.53
2023-04-30T17:35:06.948Z,101332.25
2023-04-30T17:37:35.497Z,101330.34
2023-04-30T17:40:05.688Z,101332.03
2023-04-30T17:42:34.086Z,101330.34
2023-04-30T17:45:02.237Z,101334.53
2023-04-30T17:47:32.223Z,101317.38
2023-04-30T17:50:00.312Z,101313.81
2023-04-30T17:52:28.254Z,101332.03
2023-04-30T17:54:58.486Z,101327.44
2023-04-30T17:57:26.442Z,101325.56
2023-04-30T17:59:54.867Z,101274.50
2023-04-30T18:02:23.221Z,101323.69
2023-04-30T18:04:55.799Z,101322.00
2023-04-30T18:07:24.145Z,101315.94
2023-04-30T18:09:52.562Z,101324.72
2023-04-30T18:12:20.498Z,101330.16
2023-04-30T18:14:48.440Z,101322.84
2023-04-30T18:17:16.667Z,101331.00
2023-04-30T18:19:46.480Z,101322.84
2023-04-30T18:22:15.788Z,101303.59
2023-04-30T18:24:43.693Z,101322.84
2023-04-30T18:27:12.072Z,101324.72
2023-04-30T18:29:40.118Z,101295.63
2023-04-30T18:32:08.176Z,101249.97
2023-04-30T18:34:37.984Z,101331.19
2023-04-30T18:37:06.211Z,101326.81
2023-04-30T18:39:35.552Z,101328.28
2023-04-30T18:42:04.161Z,101323.88
2023-04-30T18:44:32.675Z,101321.81
2023-04-30T18:47:02.008Z,101323.69
2023-04-30T18:49:29.931Z,101321.81
2023-04-30T18:52:01.384Z,101301.91
2023-04-30T18:54:30.928Z,101319.09
2023-04-30T18:57:00.558Z,101272.81
2023-04-30T18:59:28.955Z,101320.75
2023-04-30T19:01:56.935Z,101312.38
2023-04-30T19:04:24.881Z,101325.13
2023-04-30T19:06:54.996Z,101312.38
2023-04-30T19:09:23.044Z,101324.72
2023-04-30T19:11:51.008Z,101316.31
2023-04-30T19:14:20.336Z,101321.38
2023-04-30T19:16:48.696Z,101285.97
2023-04-30T19:19:16.705Z,101325.97
2023-04-30T19:21:44.606Z,101243.06
2023-04-30T19:24:13.057Z,101335.19
2023-04-30T19:26:42.644Z,101334.34
2023-04-30T19:29:10.556Z,101318.81
2023-04-30T19:31:39.914Z,101340.63
2023-04-30T19:34:07.968Z,101337.06
2023-04-30T19:36:36.220Z,101340.63
2023-04-30T19:39:06.037Z,101340.63
2023-04-30T19:41:33.939Z,101285.09
2023-04-30T19:44:01.845Z,101346.25
2023-04-30T19:46:30.109Z,101335.78
2023-04-30T19:48:59.472Z,101323.41
2023-04-30T19:51:27.411Z,101345.59
2023-04-30T19:53:55.413Z,101351.03
2023-04-30T19:56:23.399Z,101326.34
2023-04-30T19:58:51.333Z,101341.22
2023-04-30T20:01:19.683Z,101323.19
2023-04-30T20:03:50.614Z,101312.94
2023-04-30T20:06:20.587Z,101339.97
2023-04-30T20:08:48.970Z,101339.13
2023-04-30T20:11:16.903Z,101335.56
2023-04-30T20:13:44.853Z,101333.69
2023-04-30T20:16:12.991Z,101311.47
2023-04-30T20:18:42.062Z,101325.09
2023-04-30T20:21:10.012Z,101330.34
2023-04-30T20:23:40.668Z,101334.97
2023-04-30T20:26:08.730Z,101337.69
2023-04-30T20:28:37.530Z,101333.28
2023-04-30T20:31:06.845Z,101338.91
2023-04-30T20:33:34.946Z,101338.91
2023-04-30T20:36:03.110Z,101342.47
2023-04-30T20:38:31.064Z,101332.63
2023-04-30T20:41:01.434Z,101330.97
2023-04-30T20:43:29.814Z,101327.22
2023-04-30T20:46:00.696Z,101332.03
2023-04-30T20:48:38.053Z,101332.25
2023-04-30T20:51:07.275Z,101306.53
2023-04-30T20:53:38.985Z,101333.78
2023-04-30T20:56:19.906Z,101305.34
2023-04-30T20:58:56.934Z,101297.59
2023-04-30T21:01:25.875Z,101317.50
2023-04-30T21:04:04.428Z,101288.59
2023-04-30T21:06:37.371Z,101323.13
2023-04-30T21:09:22.727Z,101323.34
2023-04-30T21:11:54.108Z,101333.59
2023-04-30T21:14:25.030Z,101286.53
2023-04-30T21:16:53.309Z,101262.84
2023-04-30T21:19:21.240Z,101330.03
2023-04-30T21:21:49.156Z,101334.63
2023-04-30T21:24:17.354Z,101330.69
2023-04-30T21:26:45.323Z,101326.28
2023-04-30T21:29:14.710Z,101323.13
2023-04-30T21:31:43.138Z,101325.03
2023-04-30T21:34:11.067Z,101320.63
2023-04-30T21:36:39.076Z,101324.16
2023-04-30T21:39:06.996Z,101317.91
2023-04-30T21:41:34.877Z,101321.47
2023-04-30T21:44:03.530Z,101315.81
2023-04-30T21:46:32.840Z,101263.03
2023-04-30T21:49:00.838Z,101316.22
2023-04-30T21:51:29.159Z,101318.50
2023-04-30T21:53:57.383Z,101312.66
2023-04-30T21:56:25.710Z,101304.94
2023-04-30T21:58:53.679Z,101303.44
2023-04-30T22:01:24.450Z,101301.97
2023-04-30T22:03:54.698Z,101303.19
2023-04-30T22:06:22.707Z,101256.72
2023-04-30T22:08:50.619Z,101298.19
2023-04-30T22:11:19.160Z,101298.38
2023-04-30T22:13:47.068Z,101223.25
2023-04-30T22:16:15.136Z,101262.38
2023-04-30T22:18:43.082Z,101293.56
2023-04-30T22:21:12.801Z,101285.63
2023-04-30T22:23:40.742Z,101287.50
2023-04-30T22:26:09.953Z,101288.53
2023-04-30T22:28:37.943Z,101285.19
2023-04-30T22:31:06.242Z,101280.38
2023-04-30T22:33:37.028Z,101284.56
2023-04-30T22:36:05.707Z,101276.41
2023-04-30T22:38:35.321Z,101286.63
2023-04-30T22:41:03.671Z,101279.53
2023-04-30T22:43:31.707Z,101261.97
2023-04-30T22:46:00.123Z,101275.16
2023-04-30T22:48:29.199Z,101268.88
2023-04-30T22:50:58.820Z,101227.84
2023-04-30T22:53:26.897Z,101276.19
2023-04-30T22:55:56.258Z,101271.78
2023-04-30T22:58:24.186Z,101278.06
2023-04-30T23:00:52.499Z,101275.53
2023-04-30T23:03:20.495Z,101278.25
2023-04-30T23:05:51.525Z,101278.25
2023-04-30T23:08:19.630Z,101275.75
2023-04-30T23:10:48.189Z,101275.75
2023-04-30T23:13:18.542Z,101271.38
2023-04-30T23:15:46.527Z,101266.97
2023-04-30T23:18:14.516Z,101276.81
2023-04-30T23:20:43.155Z,101268.66
2023-04-30T23:23:11.106Z,101264.25
2023-04-30T23:25:39.466Z,101266.97
2023-04-30T23:28:07.386Z,101237.06
2023-04-30T23:30:40.258Z,101267.16
2023-04-30T23:33:08.391Z,101271.56
2023-04-30T23:35:36.409Z,101271.56
2023-04-30T23:38:04.399Z,101265.28
2023-04-30T23:40:32.334Z,101261.97
2023-04-30T23:43:00.504Z,101257.38
2023-04-30T23:45:28.435Z,101259.00
2023-04-30T23:47:57.878Z,101251.94
2023-04-30T23:50:25.809Z,101248.38
2023-04-30T23:52:54.858Z,101250.25
2023-04-30T23:55:22.959Z,101248.56
2023-04-30T23:57:50.890Z,101225.56
